createdAt,value
2022-12-20T00:01:33.878Z,2.30
2022-12-20T00:04:03.648Z,2.47
2022-12-20T00:06:30.980Z,2.37
2022-12-20T00:09:02.687Z,2.47
2022-12-20T00:11:30.274Z,2.30
2022-12-20T00:13:58.393Z,2.57
2022-12-20T00:16:27.962Z,2.50
2022-12-20T00:18:58.240Z,2.73
2022-12-20T00:21:26.020Z,2.17
2022-12-20T00:23:53.677Z,2.23
2022-12-20T00:26:23.397Z,2.10
2022-12-20T00:28:50.470Z,2.60
2022-12-20T00:31:20.087Z,2.37
2022-12-20T00:33:49.324Z,2.67
2022-12-20T00:36:17.663Z,1.93
2022-12-20T00:38:49.495Z,2.30
2022-12-20T00:41:22.426Z,1.90
2022-12-20T00:43:50.090Z,2.23
2022-12-20T00:46:19.416Z,2.17
2022-12-20T00:48:47.058Z,2.50
2022-12-20T00:51:16.918Z,1.90
2022-12-20T00:53:44.042Z,1.90
2022-12-20T00:56:11.557Z,1.90
2022-12-20T00:58:42.209Z,2.20
2022-12-20T01:01:24.915Z,1.87
2022-12-20T01:03:52.968Z,1.97
2022-12-20T01:06:20.681Z,1.50
2022-12-20T01:08:47.725Z,1.80
2022-12-20T01:11:21.629Z,2.20
2022-12-20T01:13:50.813Z,2.43
2022-12-20T01:16:23.865Z,1.97
2022-12-20T01:18:52.200Z,1.90
2022-12-20T01:21:21.496Z,2.10
2022-12-20T01:23:48.613Z,2.40
2022-12-20T01:26:18.606Z,1.80
2022-12-20T01:28:47.060Z,1.80
2022-12-20T01:31:17.585Z,2.40
2022-12-20T01:33:46.629Z,2.10
2022-12-20T01:36:18.655Z,1.73
2022-12-20T01:38:46.015Z,1.77
2022-12-20T01:41:19.331Z,2.07
2022-12-20T01:44:07.000Z,2.03
2022-12-20T01:46:36.588Z,1.77
2022-12-20T01:49:11.725Z,1.90
2022-12-20T01:51:45.366Z,1.90
2022-12-20T01:54:20.254Z,1.93
2022-12-20T01:56:53.519Z,1.70
2022-12-20T01:59:20.705Z,1.70
2022-12-20T02:01:47.832Z,2.23
2022-12-20T02:04:14.880Z,1.67
2022-12-20T02:06:41.940Z,1.90
2022-12-20T02:09:09.265Z,2.00
2022-12-20T02:11:44.809Z,1.60
2022-12-20T02:14:38.639Z,1.70
2022-12-20T02:17:15.897Z,1.80
2022-12-20T02:20:37.254Z,1.83
2022-12-20T02:23:32.746Z,1.73
2022-12-20T02:26:33.943Z,1.50
2022-12-20T02:29:19.247Z,1.83
2022-12-20T02:32:00.660Z,1.83
2022-12-20T02:34:32.643Z,1.77
2022-12-20T02:36:59.601Z,2.23
2022-12-20T02:39:28.477Z,1.60
2022-12-20T02:42:00.935Z,1.67
2022-12-20T02:44:49.247Z,1.83
2022-12-20T02:47:23.443Z,2.00
2022-12-20T02:49:51.511Z,1.97
2022-12-20T02:52:22.572Z,1.73
2022-12-20T02:54:49.599Z,1.53
2022-12-20T02:57:26.729Z,1.43
2022-12-20T03:00:05.541Z,2.30
2022-12-20T03:02:53.935Z,3.00
2022-12-20T03:05:23.460Z,1.73
2022-12-20T03:07:50.511Z,1.47
2022-12-20T03:10:18.085Z,1.80
2022-12-20T03:12:45.331Z,1.67
2022-12-20T03:15:12.642Z,1.60
2022-12-20T03:17:39.597Z,1.90
2022-12-20T03:20:07.441Z,1.60
2022-12-20T03:22:35.442Z,1.90
2022-12-20T03:25:02.345Z,2.23
2022-12-20T03:27:29.301Z,2.00
2022-12-20T03:29:56.423Z,1.70
2022-12-20T03:32:23.775Z,1.67
2022-12-20T03:34:50.700Z,1.80
2022-12-20T03:37:17.809Z,1.60
2022-12-20T03:39:44.700Z,1.93
2022-12-20T03:42:11.648Z,2.20
2022-12-20T03:44:38.663Z,1.80
2022-12-20T03:47:05.631Z,2.30
2022-12-20T03:49:32.600Z,2.33
2022-12-20T03:51:59.628Z,1.93
2022-12-20T03:54:26.577Z,2.47
2022-12-20T03:56:53.705Z,2.17
2022-12-20T03:59:20.965Z,2.90
2022-12-20T04:01:47.962Z,2.30
2022-12-20T04:04:16.152Z,2.03
2022-12-20T04:06:43.077Z,2.27
2022-12-20T04:09:10.067Z,2.43
2022-12-20T04:11:37.163Z,2.27
2022-12-20T04:14:04.046Z,2.13
2022-12-20T04:16:31.733Z,2.70
2022-12-20T04:18:58.664Z,2.23
2022-12-20T04:21:30.962Z,2.40
2022-12-20T04:24:01.385Z,2.80
2022-12-20T04:26:28.485Z,2.40
2022-12-20T04:28:55.504Z,2.57
2022-12-20T04:31:24.368Z,2.80
2022-12-20T04:33:52.252Z,3.00
2022-12-20T04:36:19.522Z,2.13
2022-12-20T04:38:46.520Z,2.67
2022-12-20T04:44:04.322Z,2.90
2022-12-20T04:46:31.718Z,2.60
2022-12-20T04:48:59.831Z,2.40
2022-12-20T04:51:28.608Z,2.40
2022-12-20T04:53:56.539Z,3.00
2022-12-20T04:56:28.847Z,2.60
2022-12-20T04:58:57.709Z,2.60
2022-12-20T05:01:25.201Z,2.60
2022-12-20T05:03:52.305Z,3.17
2022-12-20T05:06:19.760Z,2.73
2022-12-20T05:08:47.144Z,2.63
2022-12-20T05:11:14.292Z,2.60
2022-12-20T05:13:41.430Z,2.83
2022-12-20T05:16:08.721Z,2.10
2022-12-20T05:18:36.602Z,2.13
2022-12-20T05:21:23.328Z,2.73
2022-12-20T05:24:08.835Z,2.63
2022-12-20T05:26:38.086Z,2.70
2022-12-20T05:29:06.234Z,2.47
2022-12-20T05:31:33.834Z,2.50
2022-12-20T05:34:00.783Z,3.10
2022-12-20T05:36:27.793Z,2.50
2022-12-20T05:39:00.077Z,2.60
2022-12-20T05:41:30.454Z,2.53
2022-12-20T05:43:57.499Z,2.53
2022-12-20T05:46:24.477Z,2.67
2022-12-20T05:48:51.401Z,3.53
2022-12-20T05:51:18.337Z,3.63
2022-12-20T05:53:45.236Z,2.93
2022-12-20T05:56:12.244Z,2.67
2022-12-20T05:58:40.402Z,2.70
2022-12-20T06:01:08.365Z,2.97
2022-12-20T06:03:36.385Z,3.43
2022-12-20T06:06:08.649Z,2.97
2022-12-20T06:08:38.989Z,2.60
2022-12-20T06:11:07.103Z,2.77
2022-12-20T06:13:34.059Z,3.47
2022-12-20T06:16:01.619Z,2.50
2022-12-20T06:18:28.780Z,3.37
2022-12-20T06:20:55.761Z,2.87
2022-12-20T06:23:24.516Z,3.00
2022-12-20T06:25:52.005Z,2.90
2022-12-20T06:28:22.241Z,2.70
2022-12-20T06:30:57.867Z,2.80
2022-12-20T06:33:25.828Z,2.90
2022-12-20T06:35:53.155Z,2.33
2022-12-20T06:38:20.121Z,3.00
2022-12-20T06:40:47.059Z,2.80
2022-12-20T06:43:14.062Z,3.20
2022-12-20T06:45:42.583Z,2.43
2022-12-20T06:48:11.456Z,3.13
2022-12-20T06:50:39.757Z,3.50
2022-12-20T06:53:06.901Z,2.77
2022-12-20T06:55:34.391Z,2.57
2022-12-20T06:58:01.543Z,3.03
2022-12-20T07:00:28.565Z,2.67
2022-12-20T07:02:55.686Z,2.70
2022-12-20T07:05:22.737Z,3.07
2022-12-20T07:07:49.916Z,2.80
2022-12-20T07:10:17.082Z,2.40
2022-12-20T07:12:48.027Z,2.37
2022-12-20T07:15:15.686Z,2.80
2022-12-20T07:17:42.590Z,3.43
2022-12-20T07:20:13.718Z,3.30
2022-12-20T07:22:41.480Z,3.70
2022-12-20T07:25:08.847Z,3.80
2022-12-20T07:27:36.086Z,2.77
2022-12-20T07:30:05.326Z,2.50
2022-12-20T07:32:32.855Z,2.37
2022-12-20T07:34:59.937Z,2.20
2022-12-20T07:37:29.204Z,2.50
2022-12-20T07:39:56.161Z,2.50
2022-12-20T07:42:23.114Z,2.60
2022-12-20T07:44:49.971Z,2.23
2022-12-20T07:47:16.987Z,3.13
2022-12-20T07:49:43.869Z,2.43
2022-12-20T07:52:13.939Z,2.30
2022-12-20T07:54:49.810Z,2.20
2022-12-20T07:57:27.987Z,3.10
2022-12-20T07:59:59.309Z,3.33
2022-12-20T08:02:35.687Z,2.70
2022-12-20T08:05:05.081Z,2.50
2022-12-20T08:07:32.476Z,1.80
2022-12-20T08:09:59.930Z,2.30
2022-12-20T08:12:29.083Z,2.40
2022-12-20T08:14:57.126Z,2.27
2022-12-20T08:17:24.241Z,2.20
2022-12-20T08:19:52.407Z,2.77
2022-12-20T08:22:19.930Z,2.60
2022-12-20T08:24:47.118Z,1.97
2022-12-20T08:27:15.305Z,2.33
2022-12-20T08:29:42.303Z,2.20
2022-12-20T08:32:10.384Z,2.27
2022-12-20T08:34:37.566Z,2.33
2022-12-20T08:37:09.057Z,2.13
2022-12-20T08:39:39.368Z,1.73
2022-12-20T08:42:06.413Z,2.20
2022-12-20T08:44:33.332Z,2.97
2022-12-20T08:47:00.372Z,2.53
2022-12-20T08:49:27.311Z,2.20
2022-12-20T08:51:54.406Z,2.20
2022-12-20T08:54:21.515Z,2.13
2022-12-20T08:56:48.729Z,1.60
2022-12-20T08:59:15.624Z,1.77
2022-12-20T09:01:43.704Z,2.80
2022-12-20T09:04:11.887Z,1.97
2022-12-20T09:06:39.355Z,2.20
2022-12-20T09:09:07.664Z,2.33
2022-12-20T09:11:34.614Z,1.90
2022-12-20T09:14:01.721Z,1.70
2022-12-20T09:16:31.653Z,2.07
2022-12-20T09:19:04.976Z,1.50
2022-12-20T09:21:33.168Z,1.83
2022-12-20T09:24:00.330Z,1.93
2022-12-20T09:26:27.492Z,1.57
2022-12-20T09:28:54.477Z,2.30
2022-12-20T09:31:24.358Z,2.47
2022-12-20T09:33:55.302Z,2.13
2022-12-20T09:36:23.972Z,2.00
2022-12-20T09:38:51.438Z,1.93
2022-12-20T09:41:40.502Z,2.70
2022-12-20T09:44:20.147Z,2.53
2022-12-20T09:47:18.089Z,2.47
2022-12-20T09:49:52.897Z,1.90
2022-12-20T09:52:25.823Z,2.03
2022-12-20T09:55:25.107Z,1.70
2022-12-20T09:58:21.696Z,1.90
2022-12-20T10:00:54.243Z,1.80
2022-12-20T10:03:35.915Z,2.17
2022-12-20T10:06:25.440Z,1.63
2022-12-20T10:09:13.258Z,2.40
2022-12-20T10:12:27.287Z,2.20
2022-12-20T10:15:26.297Z,1.67
2022-12-20T10:18:50.710Z,1.80
2022-12-20T10:21:36.691Z,1.53
2022-12-20T10:24:12.614Z,1.60
2022-12-20T10:26:39.941Z,1.73
2022-12-20T10:29:07.259Z,1.70
2022-12-20T10:31:36.721Z,1.70
2022-12-20T10:34:16.916Z,2.00
2022-12-20T10:36:43.968Z,1.63
2022-12-20T10:39:10.972Z,1.80
2022-12-20T10:41:55.936Z,1.83
2022-12-20T10:44:32.906Z,1.63
2022-12-20T10:47:01.787Z,1.37
2022-12-20T10:49:34.146Z,1.97
2022-12-20T10:52:14.384Z,1.60
2022-12-20T10:54:50.213Z,1.60
2022-12-20T10:57:26.563Z,1.60
2022-12-20T11:00:29.299Z,1.53
2022-12-20T11:03:24.850Z,1.60
2022-12-20T11:06:04.572Z,1.90
2022-12-20T11:08:49.202Z,1.80
2022-12-20T11:11:24.245Z,2.50
2022-12-20T11:13:52.293Z,1.83
2022-12-20T11:16:46.903Z,1.40
2022-12-20T11:19:48.995Z,1.73
2022-12-20T11:22:32.565Z,1.70
2022-12-20T11:25:23.525Z,1.90
2022-12-20T11:28:17.688Z,1.53
2022-12-20T11:31:18.802Z,2.00
2022-12-20T11:34:27.363Z,1.57
2022-12-20T11:37:19.522Z,2.07
2022-12-20T11:40:35.874Z,1.70
2022-12-20T11:43:22.382Z,2.07
2022-12-20T11:46:18.788Z,1.70
2022-12-20T11:49:51.199Z,1.30
2022-12-20T11:52:41.199Z,1.47
2022-12-20T11:55:31.688Z,1.73
2022-12-20T11:58:19.416Z,1.43
2022-12-20T12:00:57.166Z,1.60
2022-12-20T12:03:36.094Z,1.37
2022-12-20T12:06:10.588Z,2.00
2022-12-20T12:08:43.549Z,1.80
2022-12-20T12:12:05.293Z,1.87
2022-12-20T12:14:52.417Z,1.40
2022-12-20T12:17:38.066Z,2.10
2022-12-20T12:20:22.236Z,2.70
2022-12-20T12:22:53.299Z,1.90
2022-12-20T12:25:20.352Z,2.40
2022-12-20T12:27:47.345Z,2.30
2022-12-20T12:30:16.396Z,1.67
2022-12-20T12:32:55.621Z,2.03
2022-12-20T12:35:52.784Z,1.60
2022-12-20T12:39:01.901Z,1.70
2022-12-20T12:42:07.880Z,1.47
2022-12-20T12:44:56.677Z,1.60
2022-12-20T12:47:57.508Z,1.50
2022-12-20T12:50:42.910Z,1.63
2022-12-20T12:53:37.406Z,1.40
2022-12-20T12:56:44.340Z,1.80
2022-12-20T12:59:57.600Z,1.80
2022-12-20T13:02:27.913Z,1.80
2022-12-20T13:05:16.563Z,1.63
2022-12-20T13:07:46.508Z,1.13
2022-12-20T13:10:56.417Z,1.53
2022-12-20T13:13:24.171Z,1.50
2022-12-20T13:15:52.823Z,1.93
2022-12-20T13:18:24.655Z,1.33
2022-12-20T13:21:30.619Z,1.67
2022-12-20T13:25:00.405Z,1.40
2022-12-20T13:27:34.357Z,1.67
2022-12-20T13:30:26.305Z,1.57
2022-12-20T13:33:18.960Z,1.70
2022-12-20T13:36:31.875Z,1.30
2022-12-20T13:39:22.659Z,1.53
2022-12-20T13:42:06.962Z,2.50
2022-12-20T13:44:39.920Z,1.63
2022-12-20T13:47:15.664Z,1.60
2022-12-20T13:49:43.950Z,1.33
2022-12-20T13:52:25.998Z,1.70
2022-12-20T13:54:57.435Z,1.43
2022-12-20T13:57:44.988Z,1.67
2022-12-20T14:00:16.999Z,1.70
2022-12-20T14:02:44.921Z,1.60
2022-12-20T14:05:28.634Z,1.90
2022-12-20T14:08:17.816Z,1.57
2022-12-20T14:10:45.211Z,1.87
2022-12-20T14:13:21.666Z,2.33
2022-12-20T14:15:49.003Z,1.60
2022-12-20T14:18:24.866Z,1.70
2022-12-20T14:21:02.988Z,2.00
2022-12-20T14:23:45.492Z,2.40
2022-12-20T14:26:25.219Z,1.70
2022-12-20T14:28:54.787Z,1.90
2022-12-20T14:31:43.913Z,1.80
2022-12-20T14:34:36.555Z,1.87
2022-12-20T14:37:32.124Z,2.43
2022-12-20T14:40:18.741Z,2.43
2022-12-20T14:42:46.105Z,2.47
2022-12-20T14:45:28.194Z,2.20
2022-12-20T14:48:21.203Z,1.90
2022-12-20T14:55:05.664Z,1.80
2022-12-20T14:57:51.500Z,2.07
2022-12-20T15:00:39.364Z,2.30
2022-12-20T15:03:22.713Z,2.47
2022-12-20T15:05:56.071Z,2.50
2022-12-20T15:08:27.919Z,2.07
2022-12-20T15:11:22.506Z,2.50
2022-12-20T15:13:54.589Z,2.70
2022-12-20T15:16:27.136Z,3.40
2022-12-20T15:18:56.487Z,3.20
2022-12-20T15:21:37.463Z,3.30
2022-12-20T15:24:09.801Z,3.23
2022-12-20T15:26:39.729Z,3.33
2022-12-20T15:29:07.198Z,3.70
2022-12-20T15:31:35.865Z,3.17
2022-12-20T15:34:15.839Z,2.83
2022-12-20T15:36:42.809Z,2.87
2022-12-20T15:39:13.341Z,3.60
2022-12-20T15:41:44.654Z,3.40
2022-12-20T15:44:18.770Z,3.83
2022-12-20T15:46:45.843Z,4.03
2022-12-20T15:49:18.303Z,4.93
2022-12-20T15:51:46.984Z,5.40
2022-12-20T15:54:35.831Z,4.83
2022-12-20T15:57:07.737Z,5.07
2022-12-20T16:02:23.374Z,5.27
2022-12-20T16:04:50.803Z,4.73
2022-12-20T16:07:17.985Z,4.57
2022-12-20T16:09:45.046Z,4.47
2022-12-20T16:12:34.453Z,3.83
2022-12-20T16:15:01.823Z,3.80
2022-12-20T16:17:28.868Z,5.30
2022-12-20T16:19:55.880Z,4.90
2022-12-20T16:22:28.471Z,5.63
2022-12-20T16:24:55.517Z,5.43
2022-12-20T16:27:22.892Z,5.80
2022-12-20T16:29:49.849Z,4.70
2022-12-20T16:32:21.931Z,4.83
2022-12-20T16:34:52.621Z,4.83
2022-12-20T16:37:19.723Z,5.70
2022-12-20T16:39:46.684Z,5.23
2022-12-20T16:42:19.536Z,5.20
2022-12-20T16:44:50.717Z,5.47
2022-12-20T16:47:17.821Z,4.93
2022-12-20T16:49:52.157Z,6.53
2022-12-20T16:52:22.126Z,6.33
2022-12-20T16:54:49.821Z,6.10
2022-12-20T16:57:16.836Z,6.70
2022-12-20T16:59:43.927Z,7.30
2022-12-20T17:02:33.135Z,6.07
2022-12-20T17:05:00.746Z,6.13
2022-12-20T17:07:27.766Z,6.87
2022-12-20T17:10:12.750Z,6.53
2022-12-20T17:12:40.025Z,6.10
2022-12-20T17:15:12.436Z,5.73
2022-12-20T17:17:39.393Z,4.70
2022-12-20T17:20:07.417Z,6.00
2022-12-20T17:25:30.794Z,6.37
2022-12-20T17:27:57.791Z,7.17
2022-12-20T17:30:26.069Z,6.90
2022-12-20T17:32:54.533Z,6.77
2022-12-20T17:35:25.621Z,7.40
2022-12-20T17:37:55.946Z,6.57
2022-12-20T17:40:27.583Z,6.70
2022-12-20T17:42:54.837Z,6.70
2022-12-20T17:45:36.225Z,6.30
2022-12-20T17:48:04.883Z,5.90
2022-12-20T17:50:32.005Z,6.60
2022-12-20T17:52:58.898Z,6.07
2022-12-20T17:55:27.927Z,6.93
2022-12-20T17:57:55.902Z,7.50
2022-12-20T18:00:36.400Z,6.17
2022-12-20T18:03:05.807Z,5.90
2022-12-20T18:05:32.862Z,7.30
2022-12-20T18:08:02.548Z,7.27
2022-12-20T18:10:29.561Z,6.73
2022-12-20T18:12:56.461Z,7.63
2022-12-20T18:15:24.001Z,6.57
2022-12-20T18:17:50.876Z,5.97
2022-12-20T18:20:17.827Z,6.47
2022-12-20T18:22:44.800Z,5.40
2022-12-20T18:25:14.007Z,4.87
2022-12-20T18:27:42.927Z,4.90
2022-12-20T18:30:12.582Z,5.23
2022-12-20T18:32:41.111Z,4.33
2022-12-20T18:35:09.561Z,4.70
2022-12-20T18:37:36.569Z,4.60
2022-12-20T18:40:04.114Z,5.07
2022-12-20T18:42:31.254Z,4.80
2022-12-20T18:44:58.235Z,4.20
2022-12-20T18:47:25.763Z,4.20
2022-12-20T18:49:52.976Z,4.57
2022-12-20T18:52:19.993Z,5.47
2022-12-20T18:54:46.984Z,5.00
2022-12-20T18:57:14.022Z,5.43
2022-12-20T18:59:40.983Z,5.50
2022-12-20T19:02:12.826Z,4.70
2022-12-20T19:04:40.144Z,3.80
2022-12-20T19:07:07.172Z,4.10
2022-12-20T19:09:34.430Z,4.20
2022-12-20T19:12:02.459Z,4.93
2022-12-20T19:14:29.439Z,4.47
2022-12-20T19:16:56.592Z,6.47
2022-12-20T19:19:23.698Z,5.17
2022-12-20T19:21:51.035Z,5.60
2022-12-20T19:24:17.999Z,5.33
2022-12-20T19:26:44.940Z,4.50
2022-12-20T19:29:12.205Z,5.90
2022-12-20T19:31:39.575Z,5.70
2022-12-20T19:34:09.156Z,5.33
2022-12-20T19:36:41.892Z,5.00
2022-12-20T19:39:18.485Z,4.23
2022-12-20T19:41:55.074Z,4.30
2022-12-20T19:44:27.300Z,5.80
2022-12-20T19:46:54.355Z,3.80
2022-12-20T19:49:21.545Z,4.27
2022-12-20T19:51:49.992Z,3.60
2022-12-20T19:54:16.986Z,3.97
2022-12-20T19:56:44.238Z,3.93
2022-12-20T19:59:14.099Z,4.07
2022-12-20T20:01:41.095Z,3.83
2022-12-20T20:04:10.173Z,3.80
2022-12-20T20:06:37.391Z,4.00
2022-12-20T20:09:04.457Z,4.00
2022-12-20T20:11:31.636Z,4.10
2022-12-20T20:14:00.567Z,4.10
2022-12-20T20:16:27.658Z,3.67
2022-12-20T20:18:54.862Z,4.03
2022-12-20T20:21:24.888Z,3.97
2022-12-20T20:23:53.581Z,3.90
2022-12-20T20:26:23.645Z,3.80
2022-12-20T20:28:51.100Z,3.93
2022-12-20T20:31:19.849Z,3.80
2022-12-20T20:33:47.693Z,3.70
2022-12-20T20:36:17.743Z,4.00
2022-12-20T20:38:45.834Z,3.40
2022-12-20T20:41:14.507Z,3.67
2022-12-20T20:43:42.110Z,4.30
2022-12-20T20:46:11.651Z,4.10
2022-12-20T20:48:39.533Z,4.87
2022-12-20T20:51:07.138Z,4.73
2022-12-20T20:53:34.866Z,4.40
2022-12-20T20:56:02.977Z,4.20
2022-12-20T20:58:30.033Z,4.60
2022-12-20T21:00:59.203Z,4.70
2022-12-20T21:03:27.688Z,4.20
2022-12-20T21:08:44.139Z,4.10
2022-12-20T21:11:11.664Z,4.20
2022-12-20T21:13:38.855Z,5.00
2022-12-20T21:16:10.538Z,4.33
2022-12-20T21:18:39.495Z,4.80
2022-12-20T21:21:10.732Z,4.67
2022-12-20T21:23:38.675Z,5.40
2022-12-20T21:26:06.803Z,5.00
2022-12-20T21:28:36.013Z,5.13
2022-12-20T21:31:05.690Z,4.77
2022-12-20T21:33:33.306Z,5.30
2022-12-20T21:36:08.819Z,4.90
2022-12-20T21:38:35.952Z,5.17
2022-12-20T21:41:08.072Z,4.30
2022-12-20T21:43:37.997Z,4.60
2022-12-20T21:46:05.163Z,4.43
2022-12-20T21:48:32.156Z,4.70
2022-12-20T21:51:10.933Z,4.40
2022-12-20T21:53:44.463Z,4.23
2022-12-20T21:56:11.759Z,4.20
2022-12-20T21:58:38.861Z,3.87
2022-12-20T22:01:06.762Z,4.60
2022-12-20T22:03:34.021Z,4.23
2022-12-20T22:06:01.159Z,3.93
2022-12-20T22:08:29.472Z,4.13
2022-12-20T22:11:08.719Z,4.13
2022-12-20T22:13:41.619Z,3.70
2022-12-20T22:16:30.365Z,4.27
2022-12-20T22:18:58.790Z,3.90
2022-12-20T22:21:28.892Z,4.30
2022-12-20T22:23:56.853Z,4.20
2022-12-20T22:26:26.839Z,5.00
2022-12-20T22:28:57.770Z,4.37
2022-12-20T22:31:26.790Z,5.10
2022-12-20T22:33:54.938Z,5.20
2022-12-20T22:36:22.948Z,5.03
2022-12-20T22:38:54.271Z,6.23
2022-12-20T22:41:39.636Z,6.57
2022-12-20T22:44:06.911Z,5.10
2022-12-20T22:46:34.180Z,5.53
2022-12-20T22:49:02.127Z,5.50
2022-12-20T22:51:32.162Z,5.00
2022-12-20T22:54:00.152Z,5.43
2022-12-20T22:56:27.650Z,5.13
2022-12-20T22:58:54.875Z,5.20
2022-12-20T23:01:22.051Z,5.97
2022-12-20T23:03:49.907Z,5.33
2022-12-20T23:06:19.998Z,5.80
2022-12-20T23:08:48.604Z,5.97
2022-12-20T23:11:40.736Z,6.07
2022-12-20T23:14:32.478Z,6.37
2022-12-20T23:16:59.857Z,5.10
2022-12-20T23:19:27.234Z,6.50
2022-12-20T23:22:12.756Z,5.53
2022-12-20T23:24:40.019Z,6.00
2022-12-20T23:27:06.972Z,6.93
2022-12-20T23:29:33.916Z,6.00
2022-12-20T23:32:01.857Z,5.97
2022-12-20T23:34:29.009Z,6.20
2022-12-20T23:36:55.924Z,6.60
2022-12-20T23:39:23.202Z,5.77
2022-12-20T23:41:50.251Z,6.40
2022-12-20T23:44:17.803Z,7.20
2022-12-20T23:46:44.745Z,6.40
2022-12-20T23:49:11.869Z,6.67
2022-12-20T23:51:39.948Z,6.17
2022-12-20T23:54:06.955Z,6.30
2022-12-20T23:56:33.841Z,6.97
2022-12-20T23:59:01.194Z,7.53
